createdAt,value
2017-11-04T00:00:13.957Z,0
2017-11-04T00:01:22.591Z,0
2017-11-04T00:02:31.546Z,0
2017-11-04T00:03:40.175Z,0
2017-11-04T00:04:48.793Z,0
2017-11-04T00:05:57.431Z,0
2017-11-04T00:07:06.049Z,0
2017-11-04T00:08:14.672Z,0
2017-11-04T00:09:23.301Z,0
2017-11-04T00:10:31.933Z,0
2017-11-04T00:11:40.909Z,0
2017-11-04T00:12:49.509Z,0
2017-11-04T00:13:58.133Z,0
2017-11-04T00:15:06.751Z,0
2017-11-04T00:16:15.377Z,0
2017-11-04T00:17:24.002Z,0
2017-11-04T00:18:32.614Z,0
2017-11-04T00:19:41.248Z,0
2017-11-04T00:20:49.869Z,0
2017-11-04T00:21:58.497Z,0
2017-11-04T00:23:07.120Z,0
2017-11-04T00:24:15.738Z,0
2017-11-04T00:25:24.362Z,0
2017-11-04T00:26:32.990Z,0
2017-11-04T00:27:41.605Z,0
2017-11-04T00:28:50.233Z,0
2017-11-04T00:29:58.856Z,0
2017-11-04T00:31:07.478Z,0
2017-11-04T00:32:16.096Z,0
2017-11-04T00:33:24.729Z,0
2017-11-04T00:34:33.352Z,0
2017-11-04T00:35:41.981Z,0
2017-11-04T00:36:50.596Z,0
2017-11-04T00:37:59.222Z,0
2017-11-04T00:39:07.847Z,0
2017-11-04T00:40:16.465Z,0
2017-11-04T00:41:25.420Z,0
2017-11-04T00:42:34.052Z,0
2017-11-04T00:43:43.002Z,0
2017-11-04T00:44:51.631Z,0
2017-11-04T00:46:00.252Z,0
2017-11-04T00:47:08.876Z,0
2017-11-04T00:48:17.494Z,0
2017-11-04T00:49:26.114Z,0
2017-11-04T00:50:34.735Z,0
2017-11-04T00:51:43.368Z,0
2017-11-04T00:52:51.986Z,0
2017-11-04T00:54:00.609Z,0
2017-11-04T00:55:09.240Z,0
2017-11-04T00:56:17.857Z,0
2017-11-04T00:57:26.483Z,0
2017-11-04T00:58:35.102Z,0
2017-11-04T00:59:43.723Z,0
2017-11-04T01:00:52.356Z,0
2017-11-04T01:02:00.974Z,0
2017-11-04T01:03:09.933Z,0
2017-11-04T01:04:18.549Z,0
2017-11-04T01:05:27.174Z,0
2017-11-04T01:06:35.805Z,0
2017-11-04T01:07:44.426Z,0
2017-11-04T01:08:53.046Z,0
2017-11-04T01:10:01.677Z,0
2017-11-04T01:11:10.306Z,0
2017-11-04T01:12:18.919Z,0
2017-11-04T01:13:27.543Z,0
2017-11-04T01:14:36.165Z,0
2017-11-04T01:15:44.785Z,0
2017-11-04T01:16:53.411Z,0
2017-11-04T01:18:02.057Z,0
2017-11-04T01:19:10.689Z,0
2017-11-04T01:20:19.314Z,0
2017-11-04T01:21:27.934Z,0
2017-11-04T01:22:36.565Z,0
2017-11-04T01:23:45.183Z,0
2017-11-04T01:24:53.805Z,0
2017-11-04T01:26:02.431Z,0
2017-11-04T01:27:11.389Z,0
2017-11-04T01:28:20.332Z,0
2017-11-04T01:29:29.290Z,0
2017-11-04T01:30:37.915Z,0
2017-11-04T01:31:46.534Z,0
2017-11-04T01:32:55.168Z,0
2017-11-04T01:34:03.786Z,0
2017-11-04T01:35:12.409Z,0
2017-11-04T01:36:21.035Z,0
2017-11-04T01:37:29.653Z,0
2017-11-04T01:38:38.281Z,0
2017-11-04T01:39:46.904Z,0
2017-11-04T01:40:55.521Z,0
2017-11-04T01:42:04.161Z,0
2017-11-04T01:43:12.787Z,0
2017-11-04T01:44:21.405Z,0
2017-11-04T01:45:30.036Z,0
2017-11-04T01:46:38.670Z,0
2017-11-04T01:47:47.273Z,0
2017-11-04T01:48:55.895Z,0
2017-11-04T01:50:04.840Z,0
2017-11-04T01:51:13.467Z,0
2017-11-04T01:52:22.092Z,0
2017-11-04T01:53:30.711Z,0
2017-11-04T01:54:39.343Z,0
2017-11-04T01:55:47.963Z,0
2017-11-04T01:56:56.583Z,0
2017-11-04T01:58:05.207Z,0
2017-11-04T01:59:13.821Z,0
2017-11-04T02:00:22.474Z,0
2017-11-04T02:01:31.070Z,0
2017-11-04T02:02:39.691Z,0
2017-11-04T02:03:48.316Z,0
2017-11-04T02:04:56.930Z,0
2017-11-04T02:06:05.559Z,0
2017-11-04T02:07:14.523Z,0
2017-11-04T02:08:23.135Z,0
2017-11-04T02:09:31.761Z,0
2017-11-04T02:10:40.384Z,0
2017-11-04T02:11:49.013Z,0
2017-11-04T02:12:57.632Z,0
2017-11-04T02:14:06.260Z,0
2017-11-04T02:15:14.877Z,0
2017-11-04T02:16:23.504Z,0
2017-11-04T02:17:32.114Z,0
2017-11-04T02:18:40.743Z,0
2017-11-04T02:19:49.370Z,0
2017-11-04T02:20:57.987Z,0
2017-11-04T02:22:06.605Z,0
2017-11-04T02:23:15.231Z,0
2017-11-04T02:24:23.852Z,0
2017-11-04T02:25:32.478Z,0
2017-11-04T02:26:41.104Z,0
2017-11-04T02:27:49.726Z,0
2017-11-04T02:28:58.347Z,0
2017-11-04T02:30:06.968Z,0
2017-11-04T02:31:15.593Z,0
2017-11-04T02:32:24.222Z,0
2017-11-04T02:33:32.845Z,0
2017-11-04T02:34:41.486Z,0
2017-11-04T02:35:50.092Z,0
2017-11-04T02:36:58.712Z,0
2017-11-04T02:38:07.335Z,0
2017-11-04T02:39:15.959Z,0
2017-11-04T02:40:24.585Z,0
2017-11-04T02:41:33.551Z,0
2017-11-04T02:42:42.175Z,0
2017-11-04T02:43:50.802Z,0
2017-11-04T02:44:59.417Z,0
2017-11-04T02:46:08.050Z,0
2017-11-04T02:47:16.670Z,0
2017-11-04T02:48:25.292Z,0
2017-11-04T02:49:33.926Z,0
2017-11-04T02:50:42.532Z,0
2017-11-04T02:51:51.161Z,0
2017-11-04T02:52:59.779Z,0
2017-11-04T02:54:08.409Z,0
2017-11-04T02:55:17.030Z,0
2017-11-04T02:56:25.658Z,0
2017-11-04T02:57:34.285Z,0
2017-11-04T02:58:42.911Z,0
2017-11-04T02:59:51.528Z,0
2017-11-04T03:01:00.154Z,0
2017-11-04T03:02:08.777Z,0
2017-11-04T03:03:17.405Z,0
2017-11-04T03:04:26.027Z,0
2017-11-04T03:05:34.648Z,0
2017-11-04T03:06:43.279Z,0
2017-11-04T03:07:51.901Z,0
2017-11-04T03:09:00.522Z,0
2017-11-04T03:10:09.148Z,0
2017-11-04T03:11:17.774Z,0
2017-11-04T03:12:26.388Z,0
2017-11-04T03:13:35.017Z,0
2017-11-04T03:14:43.640Z,0
2017-11-04T03:15:52.591Z,0
2017-11-04T03:17:01.215Z,0
2017-11-04T03:18:09.831Z,0
2017-11-04T03:19:18.456Z,0
2017-11-04T03:20:27.082Z,0
2017-11-04T03:21:35.700Z,0
2017-11-04T03:22:44.329Z,0
2017-11-04T03:23:52.951Z,0
2017-11-04T03:25:01.576Z,0
2017-11-04T03:26:10.204Z,0
2017-11-04T03:27:18.819Z,0
2017-11-04T03:28:27.443Z,0
2017-11-04T03:29:36.063Z,0
2017-11-04T03:30:44.695Z,0
2017-11-04T03:31:53.313Z,0
2017-11-04T03:33:01.934Z,0
2017-11-04T03:34:10.557Z,0
2017-11-04T03:35:19.182Z,0
2017-11-04T03:36:27.798Z,0
2017-11-04T03:37:36.420Z,0
2017-11-04T03:38:45.047Z,0
2017-11-04T03:39:53.660Z,0
2017-11-04T03:41:02.284Z,0
2017-11-04T03:42:10.910Z,0
2017-11-04T03:43:19.530Z,0
2017-11-04T03:44:28.158Z,0
2017-11-04T03:45:36.775Z,0
2017-11-04T03:46:45.400Z,0
2017-11-04T03:47:54.026Z,0
2017-11-04T03:49:02.644Z,0
2017-11-04T03:50:11.266Z,0
2017-11-04T03:51:19.888Z,0
2017-11-04T03:52:28.514Z,0
2017-11-04T03:53:37.137Z,0
2017-11-04T03:54:45.755Z,0
2017-11-04T03:55:54.379Z,0
2017-11-04T03:57:03.007Z,0
2017-11-04T03:58:11.949Z,0
2017-11-04T03:59:20.579Z,0
2017-11-04T04:00:29.199Z,0
2017-11-04T04:01:37.825Z,0
2017-11-04T04:02:46.778Z,0
2017-11-04T04:03:55.395Z,0
2017-11-04T04:05:04.045Z,0
2017-11-04T04:06:12.647Z,0
2017-11-04T04:07:21.262Z,0
2017-11-04T04:08:29.886Z,0
2017-11-04T04:09:38.509Z,0
2017-11-04T04:10:47.132Z,0
2017-11-04T04:11:55.751Z,0
2017-11-04T04:13:04.381Z,0
2017-11-04T04:14:13.000Z,0
2017-11-04T04:15:21.627Z,0
2017-11-04T04:16:30.242Z,0
2017-11-04T04:17:39.199Z,0
2017-11-04T04:18:47.821Z,0
2017-11-04T04:19:56.439Z,0
2017-11-04T04:21:05.402Z,0
2017-11-04T04:22:14.026Z,0
2017-11-04T04:23:22.647Z,0
2017-11-04T04:24:31.267Z,0
2017-11-04T04:25:39.899Z,0
2017-11-04T04:26:48.518Z,0
2017-11-04T04:27:57.136Z,0
2017-11-04T04:29:05.755Z,0
2017-11-04T04:30:14.375Z,0
2017-11-04T04:31:23.014Z,0
2017-11-04T04:32:31.635Z,0
2017-11-04T04:33:40.254Z,0
2017-11-04T04:34:48.882Z,0
2017-11-04T04:35:57.501Z,0
2017-11-04T04:37:06.126Z,0
2017-11-04T04:38:14.752Z,0
2017-11-04T04:39:23.383Z,0
2017-11-04T04:40:31.993Z,0
2017-11-04T04:41:40.619Z,0
2017-11-04T04:42:49.241Z,0
2017-11-04T04:43:57.876Z,0
2017-11-04T04:45:06.489Z,0
2017-11-04T04:46:15.110Z,0
2017-11-04T04:47:23.734Z,0
2017-11-04T04:48:32.360Z,0
2017-11-04T04:49:40.978Z,0
2017-11-04T04:50:49.601Z,0
2017-11-04T04:51:58.221Z,0
2017-11-04T04:53:06.850Z,0
2017-11-04T04:54:15.474Z,0
2017-11-04T04:55:24.096Z,0
2017-11-04T04:56:32.718Z,0
2017-11-04T04:57:41.333Z,0
2017-11-04T04:58:49.965Z,0
2017-11-04T04:59:58.591Z,0
2017-11-04T05:01:07.210Z,0
2017-11-04T05:02:15.838Z,0
2017-11-04T05:03:24.460Z,0
2017-11-04T05:04:33.075Z,0
2017-11-04T05:05:41.703Z,0
2017-11-04T05:06:50.331Z,0
2017-11-04T05:07:58.948Z,0
2017-11-04T05:09:07.569Z,0
2017-11-04T05:10:16.202Z,0
2017-11-04T05:11:25.143Z,0
2017-11-04T05:12:33.772Z,0
2017-11-04T05:13:42.391Z,0
2017-11-04T05:14:51.013Z,0
2017-11-04T05:15:59.637Z,0
2017-11-04T05:17:08.254Z,0
2017-11-04T05:18:16.881Z,0
2017-11-04T05:19:25.503Z,0
2017-11-04T05:20:34.122Z,0
2017-11-04T05:21:42.744Z,0
2017-11-04T05:22:51.369Z,0
2017-11-04T05:23:59.987Z,0
2017-11-04T05:25:08.609Z,0
2017-11-04T05:26:17.238Z,0
2017-11-04T05:27:25.858Z,0
2017-11-04T05:28:34.485Z,0
2017-11-04T05:29:43.099Z,0
2017-11-04T05:30:51.725Z,0
2017-11-04T05:32:00.350Z,0
2017-11-04T05:33:08.969Z,0
2017-11-04T05:34:17.590Z,0
2017-11-04T05:35:26.218Z,0
2017-11-04T05:36:34.842Z,0
2017-11-04T05:37:43.461Z,0
2017-11-04T05:38:52.090Z,0
2017-11-04T05:40:00.710Z,0
2017-11-04T05:41:09.338Z,0
2017-11-04T05:42:17.950Z,0
2017-11-04T05:43:26.571Z,0
2017-11-04T05:44:35.198Z,0
2017-11-04T05:45:43.817Z,0
2017-11-04T05:46:52.441Z,0
2017-11-04T05:48:01.397Z,0
2017-11-04T05:49:10.013Z,0
2017-11-04T05:50:18.634Z,0
2017-11-04T05:51:27.253Z,0
2017-11-04T05:52:35.873Z,0
2017-11-04T05:53:44.503Z,0
2017-11-04T05:54:53.123Z,0
2017-11-04T05:56:01.748Z,0
2017-11-04T05:57:10.363Z,0
2017-11-04T05:58:18.986Z,0
2017-11-04T05:59:27.612Z,0
2017-11-04T06:00:36.234Z,0
2017-11-04T06:01:44.856Z,0
2017-11-04T06:02:53.484Z,0
2017-11-04T06:04:02.101Z,0
2017-11-04T06:05:10.725Z,0
2017-11-04T06:06:19.353Z,0
2017-11-04T06:07:28.307Z,0
2017-11-04T06:08:36.926Z,0
2017-11-04T06:09:45.548Z,0
2017-11-04T06:10:54.167Z,0
2017-11-04T06:12:02.794Z,0
2017-11-04T06:13:11.416Z,0
2017-11-04T06:14:20.033Z,0
2017-11-04T06:15:28.661Z,0
2017-11-04T06:16:37.282Z,0
2017-11-04T06:17:45.903Z,0
2017-11-04T06:18:54.525Z,0
2017-11-04T06:20:03.152Z,0
2017-11-04T06:21:11.768Z,0
2017-11-04T06:22:20.391Z,0
2017-11-04T06:23:29.013Z,0
2017-11-04T06:24:37.625Z,0
2017-11-04T06:25:46.257Z,0
2017-11-04T06:26:54.875Z,0
2017-11-04T06:28:03.499Z,0
2017-11-04T06:29:12.122Z,0
2017-11-04T06:30:20.737Z,0
2017-11-04T06:31:29.359Z,0
2017-11-04T06:32:37.985Z,0
2017-11-04T06:33:46.601Z,0
2017-11-04T06:34:55.225Z,0
2017-11-04T06:36:03.849Z,5
2017-11-04T06:37:12.466Z,5
2017-11-04T06:38:21.087Z,5
2017-11-04T06:39:29.718Z,5
2017-11-04T06:40:38.336Z,5
2017-11-04T06:41:46.962Z,5
2017-11-04T06:42:55.577Z,5
2017-11-04T06:44:04.203Z,5
2017-11-04T06:45:12.826Z,10
2017-11-04T06:46:21.447Z,10
2017-11-04T06:47:30.074Z,10
2017-11-04T06:48:38.692Z,10
2017-11-04T06:49:47.320Z,10
2017-11-04T06:50:55.945Z,15
2017-11-04T06:52:04.563Z,15
2017-11-04T06:53:13.517Z,15
2017-11-04T06:54:22.141Z,15
2017-11-04T06:55:30.775Z,15
2017-11-04T06:56:39.394Z,20
2017-11-04T06:57:48.010Z,20
2017-11-04T06:58:56.633Z,20
2017-11-04T07:00:05.258Z,20
2017-11-04T07:01:13.875Z,25
2017-11-04T07:02:22.503Z,25
2017-11-04T07:03:31.127Z,25
2017-11-04T07:04:39.746Z,25
2017-11-04T07:05:48.368Z,25
2017-11-04T07:06:56.999Z,30
2017-11-04T07:08:05.621Z,30
2017-11-04T07:09:14.242Z,30
2017-11-04T07:10:23.192Z,30
2017-11-04T07:11:31.815Z,30
2017-11-04T07:12:40.442Z,30
2017-11-04T07:13:49.063Z,30
2017-11-04T07:14:57.687Z,30
2017-11-04T07:16:06.317Z,35
2017-11-04T07:17:14.943Z,35
2017-11-04T07:18:23.563Z,35
2017-11-04T07:19:32.175Z,35
2017-11-04T07:20:40.803Z,40
2017-11-04T07:21:49.426Z,40
2017-11-04T07:22:58.045Z,45
2017-11-04T07:24:07.018Z,45
2017-11-04T07:25:15.638Z,45
2017-11-04T07:26:24.262Z,50
2017-11-04T07:27:32.886Z,55
2017-11-04T07:28:41.497Z,60
2017-11-04T07:29:50.120Z,65
2017-11-04T07:30:58.747Z,65
2017-11-04T07:32:07.367Z,65
2017-11-04T07:33:15.986Z,60
2017-11-04T07:34:24.616Z,60
2017-11-04T07:35:33.232Z,55
2017-11-04T07:36:41.853Z,55
2017-11-04T07:37:50.485Z,50
2017-11-04T07:38:59.099Z,50
2017-11-04T07:40:07.724Z,50
2017-11-04T07:41:16.344Z,55
2017-11-04T07:42:24.968Z,60
2017-11-04T07:43:33.592Z,60
2017-11-04T07:44:42.212Z,60
2017-11-04T07:45:51.167Z,60
2017-11-04T07:46:59.789Z,60
2017-11-04T07:48:08.430Z,60
2017-11-04T07:49:17.038Z,65
2017-11-04T07:50:25.663Z,65
2017-11-04T07:51:34.281Z,65
2017-11-04T07:52:43.239Z,70
2017-11-04T07:53:51.859Z,70
2017-11-04T07:55:00.488Z,70
2017-11-04T07:56:09.103Z,75
2017-11-04T07:57:17.729Z,80
2017-11-04T07:58:26.353Z,80
2017-11-04T07:59:34.973Z,85
2017-11-04T08:00:43.594Z,90
2017-11-04T08:01:52.225Z,85
2017-11-04T08:03:00.857Z,90
2017-11-04T08:04:09.471Z,90
2017-11-04T08:05:18.443Z,95
2017-11-04T08:06:27.065Z,100
2017-11-04T08:07:35.688Z,105
2017-11-04T08:08:44.311Z,110
2017-11-04T08:09:52.930Z,110
2017-11-04T08:11:01.564Z,115
2017-11-04T08:12:10.185Z,115
2017-11-04T08:13:18.802Z,110
2017-11-04T08:14:27.435Z,105
2017-11-04T08:15:36.056Z,105
2017-11-04T08:16:44.679Z,100
2017-11-04T08:17:53.303Z,95
2017-11-04T08:19:01.931Z,90
2017-11-04T08:20:10.546Z,85
2017-11-04T08:21:19.173Z,85
2017-11-04T08:22:27.796Z,85
2017-11-04T08:23:36.430Z,85
2017-11-04T08:24:45.054Z,85
2017-11-04T08:25:53.672Z,85
2017-11-04T08:27:02.296Z,90
2017-11-04T08:28:10.924Z,90
2017-11-04T08:29:19.541Z,95
2017-11-04T08:30:28.166Z,95
2017-11-04T08:31:36.791Z,100
2017-11-04T08:32:45.409Z,100
2017-11-04T08:33:54.034Z,100
2017-11-04T08:35:02.986Z,95
2017-11-04T08:36:11.610Z,95
2017-11-04T08:37:20.242Z,100
2017-11-04T08:38:28.863Z,100
2017-11-04T08:39:37.488Z,100
2017-11-04T08:40:46.113Z,100
2017-11-04T08:41:55.060Z,100
2017-11-04T08:43:03.686Z,95
2017-11-04T08:44:12.313Z,95
2017-11-04T08:45:20.943Z,105
2017-11-04T08:46:29.570Z,110
2017-11-04T08:47:38.195Z,110
2017-11-04T08:48:46.821Z,90
2017-11-04T08:49:55.447Z,80
2017-11-04T08:51:04.065Z,80
2017-11-04T08:52:12.698Z,80
2017-11-04T08:53:21.318Z,90
2017-11-04T08:54:29.941Z,105
2017-11-04T08:55:38.567Z,115
2017-11-04T08:56:47.186Z,120
2017-11-04T08:57:56.142Z,125
2017-11-04T08:59:04.767Z,125
2017-11-04T09:00:13.395Z,120
2017-11-04T09:01:22.017Z,120
2017-11-04T09:02:30.973Z,105
2017-11-04T09:03:39.594Z,105
2017-11-04T09:04:48.217Z,110
2017-11-04T09:05:56.850Z,105
2017-11-04T09:07:05.472Z,100
2017-11-04T09:08:14.100Z,100
2017-11-04T09:09:22.718Z,100
2017-11-04T09:10:31.354Z,100
2017-11-04T09:11:39.973Z,95
2017-11-04T09:12:48.591Z,95
2017-11-04T09:13:57.217Z,95
2017-11-04T09:15:05.848Z,95
2017-11-04T09:16:14.808Z,105
2017-11-04T09:17:23.430Z,115
2017-11-04T09:18:32.062Z,115
2017-11-04T09:19:40.679Z,115
2017-11-04T09:20:49.302Z,120
2017-11-04T09:21:57.923Z,135
2017-11-04T09:23:06.546Z,130
2017-11-04T09:24:15.176Z,130
2017-11-04T09:25:23.799Z,130
2017-11-04T09:26:32.420Z,140
2017-11-04T09:27:41.053Z,135
2017-11-04T09:28:49.672Z,135
2017-11-04T09:29:58.295Z,125
2017-11-04T09:31:06.921Z,130
2017-11-04T09:32:15.549Z,130
2017-11-04T09:33:24.164Z,130
2017-11-04T09:34:32.793Z,125
2017-11-04T09:35:41.738Z,125
2017-11-04T09:36:50.371Z,125
2017-11-04T09:37:58.993Z,120
2017-11-04T09:39:07.617Z,120
2017-11-04T09:40:16.242Z,120
2017-11-04T09:41:24.872Z,120
2017-11-04T09:42:33.492Z,115
2017-11-04T09:43:42.460Z,120
2017-11-04T09:44:51.085Z,130
2017-11-04T09:45:59.714Z,110
2017-11-04T09:47:08.338Z,115
2017-11-04T09:48:16.960Z,115
2017-11-04T09:49:25.583Z,125
2017-11-04T09:50:34.528Z,125
2017-11-04T09:51:43.162Z,135
2017-11-04T09:52:51.788Z,135
2017-11-04T09:54:00.416Z,135
2017-11-04T09:55:09.045Z,135
2017-11-04T09:56:17.664Z,135
2017-11-04T09:57:26.288Z,135
2017-11-04T09:58:34.912Z,130
2017-11-04T09:59:43.538Z,135
2017-11-04T10:00:52.157Z,135
2017-11-04T10:02:00.785Z,130
2017-11-04T10:03:09.415Z,135
2017-11-04T10:04:18.033Z,135
2017-11-04T10:05:26.669Z,135
2017-11-04T10:06:35.633Z,135
2017-11-04T10:07:44.260Z,135
2017-11-04T10:08:52.884Z,135
2017-11-04T10:10:01.839Z,140
2017-11-04T10:11:10.800Z,140
2017-11-04T10:12:19.430Z,140
2017-11-04T10:13:28.050Z,140
2017-11-04T10:14:36.679Z,140
2017-11-04T10:15:45.307Z,125
2017-11-04T10:16:53.930Z,140
2017-11-04T10:18:02.554Z,135
2017-11-04T10:19:11.188Z,140
2017-11-04T10:20:19.813Z,140
2017-11-04T10:21:28.438Z,140
2017-11-04T10:22:37.720Z,140
2017-11-04T10:23:46.351Z,140
2017-11-04T10:24:54.979Z,140
2017-11-04T10:26:03.603Z,140
2017-11-04T10:27:12.226Z,145
2017-11-04T10:28:20.860Z,140
2017-11-04T10:29:29.486Z,140
2017-11-04T10:30:38.110Z,135
2017-11-04T10:31:46.745Z,130
2017-11-04T10:32:55.364Z,135
2017-11-04T10:34:04.318Z,135
2017-11-04T10:35:12.950Z,130
2017-11-04T10:36:21.568Z,140
2017-11-04T10:37:30.201Z,145
2017-11-04T10:38:38.821Z,150
2017-11-04T10:39:47.445Z,125
2017-11-04T10:40:56.082Z,120
2017-11-04T10:42:04.699Z,140
2017-11-04T10:43:13.323Z,145
2017-11-04T10:44:21.946Z,145
2017-11-04T10:45:30.571Z,145
2017-11-04T10:46:39.208Z,145
2017-11-04T10:47:47.833Z,145
2017-11-04T10:48:56.460Z,150
2017-11-04T10:50:05.083Z,150
2017-11-04T10:51:13.712Z,150
2017-11-04T10:52:22.346Z,145
2017-11-04T10:53:30.973Z,145
2017-11-04T10:54:39.596Z,145
2017-11-04T10:55:48.231Z,145
2017-11-04T10:56:56.863Z,145
2017-11-04T10:58:05.489Z,145
2017-11-04T10:59:14.118Z,145
2017-11-04T11:00:22.745Z,145
2017-11-04T11:01:31.369Z,140
2017-11-04T11:02:39.997Z,135
2017-11-04T11:03:48.616Z,140
2017-11-04T11:04:57.251Z,135
2017-11-04T11:06:05.874Z,145
2017-11-04T11:07:14.501Z,145
2017-11-04T11:08:23.135Z,150
2017-11-04T11:09:31.764Z,145
2017-11-04T11:10:40.387Z,140
2017-11-04T11:11:49.011Z,145
2017-11-04T11:12:57.634Z,150
2017-11-04T11:14:06.269Z,150
2017-11-04T11:15:14.891Z,150
2017-11-04T11:16:23.853Z,150
2017-11-04T11:17:32.816Z,150
2017-11-04T11:18:41.437Z,150
2017-11-04T11:19:50.066Z,150
2017-11-04T11:20:58.693Z,145
2017-11-04T11:22:07.318Z,150
2017-11-04T11:23:15.954Z,145
2017-11-04T11:24:24.581Z,150
2017-11-04T11:25:33.204Z,145
2017-11-04T11:26:41.839Z,140
2017-11-04T11:27:50.462Z,140
2017-11-04T11:28:59.087Z,125
2017-11-04T11:30:07.720Z,120
2017-11-04T11:31:16.349Z,105
2017-11-04T11:32:24.973Z,105
2017-11-04T11:33:33.598Z,110
2017-11-04T11:34:42.555Z,105
2017-11-04T11:35:51.191Z,100
2017-11-04T11:36:59.817Z,95
2017-11-04T11:38:08.439Z,100
2017-11-04T11:39:17.066Z,95
2017-11-04T11:40:25.689Z,95
2017-11-04T11:41:34.322Z,100
2017-11-04T11:42:42.945Z,105
2017-11-04T11:43:51.570Z,105
2017-11-04T11:45:00.201Z,115
2017-11-04T11:46:08.826Z,120
2017-11-04T11:47:17.452Z,145
2017-11-04T11:48:26.082Z,150
2017-11-04T11:49:34.703Z,165
2017-11-04T11:50:43.336Z,160
2017-11-04T11:51:51.964Z,170
2017-11-04T11:53:00.589Z,170
2017-11-04T11:54:09.225Z,165
2017-11-04T11:55:17.849Z,160
2017-11-04T11:56:26.473Z,155
2017-11-04T11:57:35.104Z,120
2017-11-04T11:58:43.736Z,105
2017-11-04T11:59:52.358Z,100
2017-11-04T12:01:00.984Z,95
2017-11-04T12:02:09.610Z,90
2017-11-04T12:03:18.243Z,90
2017-11-04T12:04:26.870Z,90
2017-11-04T12:05:35.500Z,100
2017-11-04T12:06:44.127Z,95
2017-11-04T12:07:52.756Z,95
2017-11-04T12:09:01.375Z,95
2017-11-04T12:10:10.004Z,105
2017-11-04T12:11:18.632Z,110
2017-11-04T12:12:27.253Z,135
2017-11-04T12:13:35.881Z,150
2017-11-04T12:14:44.511Z,165
2017-11-04T12:15:53.139Z,175
2017-11-04T12:17:02.104Z,185
2017-11-04T12:18:10.727Z,185
2017-11-04T12:19:19.361Z,190
2017-11-04T12:20:27.988Z,185
2017-11-04T12:21:36.609Z,185
2017-11-04T12:22:45.236Z,185
2017-11-04T12:23:53.868Z,180
2017-11-04T12:25:02.493Z,175
2017-11-04T12:26:11.449Z,170
2017-11-04T12:27:20.086Z,145
2017-11-04T12:28:28.713Z,145
2017-11-04T12:29:37.338Z,160
2017-11-04T12:30:45.973Z,155
2017-11-04T12:31:54.596Z,155
2017-11-04T12:33:03.225Z,155
2017-11-04T12:34:11.857Z,155
2017-11-04T12:35:20.483Z,160
2017-11-04T12:36:29.118Z,160
2017-11-04T12:37:37.746Z,160
2017-11-04T12:38:46.376Z,160
2017-11-04T12:39:54.995Z,160
2017-11-04T12:41:03.978Z,155
2017-11-04T12:42:12.609Z,130
2017-11-04T12:43:21.233Z,120
2017-11-04T12:44:29.863Z,125
2017-11-04T12:45:38.835Z,145
2017-11-04T12:46:47.460Z,145
2017-11-04T12:47:56.094Z,145
2017-11-04T12:49:04.717Z,145
2017-11-04T12:50:13.347Z,145
2017-11-04T12:51:21.977Z,135
2017-11-04T12:52:30.604Z,140
2017-11-04T12:53:39.228Z,145
2017-11-04T12:54:47.866Z,145
2017-11-04T12:55:56.497Z,145
2017-11-04T12:57:05.121Z,135
2017-11-04T12:58:13.756Z,130
2017-11-04T12:59:22.384Z,145
2017-11-04T13:00:31.012Z,145
2017-11-04T13:01:39.639Z,145
2017-11-04T13:02:48.265Z,145
2017-11-04T13:03:56.898Z,140
2017-11-04T13:05:05.524Z,135
2017-11-04T13:06:14.151Z,135
2017-11-04T13:07:22.796Z,135
2017-11-04T13:08:31.414Z,125
2017-11-04T13:09:40.039Z,100
2017-11-04T13:10:48.670Z,120
2017-11-04T13:11:57.300Z,120
2017-11-04T13:13:05.922Z,125
2017-11-04T13:14:14.554Z,120
2017-11-04T13:15:23.179Z,120
2017-11-04T13:16:31.814Z,120
2017-11-04T13:17:40.438Z,120
2017-11-04T13:18:49.069Z,125
2017-11-04T13:19:58.028Z,125
2017-11-04T13:21:06.661Z,125
2017-11-04T13:22:15.283Z,120
2017-11-04T13:23:23.913Z,130
2017-11-04T13:24:32.546Z,135
2017-11-04T13:25:41.168Z,145
2017-11-04T13:26:49.801Z,145
2017-11-04T13:27:58.431Z,150
2017-11-04T13:29:07.055Z,150
2017-11-04T13:30:16.023Z,150
2017-11-04T13:31:24.646Z,145
2017-11-04T13:32:33.276Z,140
2017-11-04T13:33:41.910Z,120
2017-11-04T13:34:50.529Z,115
2017-11-04T13:35:59.158Z,120
2017-11-04T13:37:07.790Z,145
2017-11-04T13:38:16.423Z,155
2017-11-04T13:39:25.049Z,155
2017-11-04T13:40:33.673Z,125
2017-11-04T13:41:42.305Z,115
2017-11-04T13:42:50.938Z,110
2017-11-04T13:43:59.562Z,110
2017-11-04T13:45:08.197Z,110
2017-11-04T13:46:16.824Z,135
2017-11-04T13:47:25.456Z,130
2017-11-04T13:48:34.086Z,130
2017-11-04T13:49:42.707Z,125
2017-11-04T13:50:51.343Z,130
2017-11-04T13:51:59.972Z,135
2017-11-04T13:53:08.591Z,140
2017-11-04T13:54:17.224Z,140
2017-11-04T13:55:25.856Z,140
2017-11-04T13:56:34.485Z,135
2017-11-04T13:57:43.120Z,130
2017-11-04T13:58:51.748Z,120
2017-11-04T14:00:00.374Z,110
2017-11-04T14:01:09.006Z,105
2017-11-04T14:02:17.630Z,105
2017-11-04T14:03:26.260Z,100
2017-11-04T14:04:34.890Z,95
2017-11-04T14:05:43.516Z,90
2017-11-04T14:06:52.142Z,90
2017-11-04T14:08:00.780Z,85
2017-11-04T14:09:09.409Z,85
2017-11-04T14:10:18.036Z,85
2017-11-04T14:11:26.673Z,80
2017-11-04T14:12:35.297Z,80
2017-11-04T14:13:43.925Z,80
2017-11-04T14:14:52.548Z,80
2017-11-04T14:16:01.174Z,75
2017-11-04T14:17:09.805Z,75
2017-11-04T14:18:18.433Z,75
2017-11-04T14:19:27.058Z,75
2017-11-04T14:20:35.692Z,75
2017-11-04T14:21:44.322Z,75
2017-11-04T14:22:52.946Z,75
2017-11-04T14:24:01.574Z,75
2017-11-04T14:25:10.541Z,75
2017-11-04T14:26:19.165Z,75
2017-11-04T14:27:27.797Z,75
2017-11-04T14:28:36.423Z,75
2017-11-04T14:29:45.058Z,70
2017-11-04T14:30:53.682Z,70
2017-11-04T14:32:02.642Z,70
2017-11-04T14:33:11.607Z,70
2017-11-04T14:34:20.570Z,70
2017-11-04T14:35:29.190Z,70
2017-11-04T14:36:37.820Z,65
2017-11-04T14:37:46.446Z,65
2017-11-04T14:38:55.084Z,65
2017-11-04T14:40:03.712Z,65
2017-11-04T14:41:12.339Z,60
2017-11-04T14:42:20.968Z,60
2017-11-04T14:43:29.592Z,60
2017-11-04T14:44:38.223Z,60
2017-11-04T14:45:46.851Z,60
2017-11-04T14:46:55.479Z,60
2017-11-04T14:48:04.458Z,60
2017-11-04T14:49:13.086Z,55
2017-11-04T14:50:21.711Z,55
2017-11-04T14:51:30.345Z,55
2017-11-04T14:52:38.973Z,55
2017-11-04T14:53:47.601Z,50
2017-11-04T14:54:56.236Z,50
2017-11-04T14:56:04.872Z,50
2017-11-04T14:57:13.482Z,50
2017-11-04T14:58:22.113Z,45
2017-11-04T14:59:30.741Z,45
2017-11-04T15:00:39.368Z,45
2017-11-04T15:01:48.006Z,40
2017-11-04T15:02:56.962Z,40
2017-11-04T15:04:05.588Z,40
2017-11-04T15:05:14.216Z,40
2017-11-04T15:06:22.850Z,35
2017-11-04T15:07:31.479Z,35
2017-11-04T15:08:40.432Z,35
2017-11-04T15:09:49.062Z,35
2017-11-04T15:10:57.694Z,30
2017-11-04T15:12:06.317Z,30
2017-11-04T15:13:14.948Z,30
2017-11-04T15:14:23.578Z,30
2017-11-04T15:15:32.212Z,30
2017-11-04T15:16:40.839Z,30
2017-11-04T15:17:49.464Z,25
2017-11-04T15:18:58.094Z,25
2017-11-04T15:20:06.729Z,25
2017-11-04T15:21:15.348Z,25
2017-11-04T15:22:23.977Z,25
2017-11-04T15:23:32.611Z,25
2017-11-04T15:24:41.230Z,25
2017-11-04T15:25:49.861Z,20
2017-11-04T15:26:58.489Z,20
2017-11-04T15:28:07.121Z,20
2017-11-04T15:29:15.748Z,20
2017-11-04T15:30:24.369Z,20
2017-11-04T15:31:32.999Z,20
2017-11-04T15:32:41.632Z,15
2017-11-04T15:33:50.253Z,15
2017-11-04T15:34:58.885Z,15
2017-11-04T15:36:07.513Z,15
2017-11-04T15:37:16.477Z,15
2017-11-04T15:38:25.103Z,15
2017-11-04T15:39:33.724Z,10
2017-11-04T15:40:42.355Z,10
2017-11-04T15:41:50.980Z,10
2017-11-04T15:42:59.614Z,10
2017-11-04T15:44:08.572Z,10
2017-11-04T15:45:17.200Z,10
2017-11-04T15:46:25.829Z,10
2017-11-04T15:47:34.459Z,5
2017-11-04T15:48:43.082Z,5
2017-11-04T15:49:51.708Z,5
2017-11-04T15:51:00.339Z,5
2017-11-04T15:52:08.964Z,5
2017-11-04T15:53:17.597Z,5
2017-11-04T15:54:26.226Z,5
2017-11-04T15:55:34.850Z,5
2017-11-04T15:56:43.485Z,0
2017-11-04T15:57:52.107Z,0
2017-11-04T15:59:00.729Z,0
2017-11-04T16:00:09.358Z,0
2017-11-04T16:01:18.319Z,0
2017-11-04T16:02:26.951Z,0
2017-11-04T16:03:35.584Z,0
2017-11-04T16:04:44.208Z,0
2017-11-04T16:05:52.838Z,0
2017-11-04T16:07:01.471Z,0
2017-11-04T16:08:10.098Z,0
2017-11-04T16:09:18.725Z,0
2017-11-04T16:10:27.360Z,0
2017-11-04T16:11:35.983Z,0
2017-11-04T16:12:44.612Z,0
2017-11-04T16:13:53.254Z,0
2017-11-04T16:15:01.862Z,0
2017-11-04T16:16:10.496Z,0
2017-11-04T16:17:19.129Z,0
2017-11-04T16:18:27.750Z,0
2017-11-04T16:19:36.386Z,0
2017-11-04T16:20:45.009Z,0
2017-11-04T16:21:53.635Z,0
2017-11-04T16:23:02.264Z,0